createdAt,value
2023-05-19T00:01:01.452Z,39.03
2023-05-19T00:03:34.208Z,39.00
2023-05-19T00:06:06.340Z,39.06
2023-05-19T00:08:39.468Z,39.16
2023-05-19T00:11:12.112Z,39.23
2023-05-19T00:13:48.413Z,39.35
2023-05-19T00:16:20.018Z,39.40
2023-05-19T00:18:51.811Z,39.56
2023-05-19T00:21:23.654Z,39.73
2023-05-19T00:23:54.747Z,39.87
2023-05-19T00:26:27.675Z,40.17
2023-05-19T00:29:03.803Z,40.56
2023-05-19T00:31:35.366Z,40.77
2023-05-19T00:34:06.975Z,41.02
2023-05-19T00:36:38.860Z,41.34
2023-05-19T00:39:10.249Z,41.42
2023-05-19T00:41:41.638Z,41.60
2023-05-19T00:44:12.630Z,41.85
2023-05-19T00:46:43.792Z,42.05
2023-05-19T00:49:15.112Z,42.43
2023-05-19T00:51:46.777Z,42.61
2023-05-19T00:54:19.780Z,42.92
2023-05-19T00:56:51.288Z,43.16
2023-05-19T00:59:22.647Z,43.15
2023-05-19T01:01:54.430Z,43.36
2023-05-19T01:04:25.757Z,43.56
2023-05-19T01:06:57.691Z,43.63
2023-05-19T01:09:30.763Z,43.86
2023-05-19T01:12:02.133Z,43.98
2023-05-19T01:14:33.394Z,44.28
2023-05-19T01:17:09.949Z,44.54
2023-05-19T01:19:57.608Z,44.72
2023-05-19T01:22:43.077Z,44.75
2023-05-19T01:25:47.033Z,44.88
2023-05-19T01:28:33.254Z,45.10
2023-05-19T01:31:07.552Z,45.19
2023-05-19T01:33:40.369Z,45.51
2023-05-19T01:36:14.718Z,45.72
2023-05-19T01:38:47.337Z,45.93
2023-05-19T01:41:19.841Z,46.27
2023-05-19T01:43:52.280Z,46.39
2023-05-19T01:46:24.878Z,46.47
2023-05-19T01:48:57.205Z,46.76
2023-05-19T01:51:29.326Z,46.79
2023-05-19T01:54:00.761Z,46.86
2023-05-19T01:56:46.734Z,46.91
2023-05-19T01:59:35.227Z,47.00
2023-05-19T02:02:16.874Z,47.15
2023-05-19T02:04:56.615Z,47.55
2023-05-19T02:07:38.858Z,47.97
2023-05-19T02:10:19.946Z,48.16
2023-05-19T02:12:54.665Z,48.18
2023-05-19T02:15:31.344Z,48.38
2023-05-19T02:18:05.867Z,48.47
2023-05-19T02:20:37.319Z,48.63
2023-05-19T02:23:08.714Z,48.79
2023-05-19T02:25:39.612Z,49.00
2023-05-19T02:28:10.960Z,49.03
2023-05-19T02:30:42.867Z,49.08
2023-05-19T02:33:14.707Z,49.26
2023-05-19T02:35:47.627Z,49.28
2023-05-19T02:38:19.366Z,49.45
2023-05-19T02:40:52.866Z,48.98
2023-05-19T02:43:24.173Z,49.21
2023-05-19T02:45:55.166Z,49.36
2023-05-19T02:48:26.702Z,49.63
2023-05-19T02:50:58.023Z,49.67
2023-05-19T02:53:29.773Z,49.68
2023-05-19T02:56:00.773Z,49.40
2023-05-19T02:58:32.098Z,49.73
2023-05-19T03:01:03.111Z,49.89
2023-05-19T03:03:34.637Z,50.10
2023-05-19T03:06:08.921Z,50.54
2023-05-19T03:08:42.346Z,50.43
2023-05-19T03:11:13.866Z,50.58
2023-05-19T03:13:45.158Z,50.40
2023-05-19T03:16:16.691Z,50.25
2023-05-19T03:18:48.020Z,50.16
2023-05-19T03:21:19.210Z,49.92
2023-05-19T03:23:50.586Z,50.42
2023-05-19T03:26:23.222Z,50.31
2023-05-19T03:28:54.721Z,50.83
2023-05-19T03:31:26.842Z,50.75
2023-05-19T03:33:58.746Z,50.96
2023-05-19T03:36:32.984Z,51.22
2023-05-19T03:39:04.500Z,50.93
2023-05-19T03:41:35.959Z,50.87
2023-05-19T03:44:07.981Z,51.20
2023-05-19T03:46:39.271Z,51.02
2023-05-19T03:49:33.917Z,51.43
2023-05-19T03:52:13.870Z,51.50
2023-05-19T03:55:00.441Z,51.15
2023-05-19T03:57:31.870Z,50.98
2023-05-19T04:00:04.103Z,50.80
2023-05-19T04:02:43.583Z,50.76
2023-05-19T04:05:15.430Z,50.94
2023-05-19T04:07:47.765Z,50.86
2023-05-19T04:10:18.951Z,50.87
2023-05-19T04:12:51.585Z,50.81
2023-05-19T04:15:22.977Z,50.74
2023-05-19T04:17:54.766Z,50.91
2023-05-19T04:20:26.422Z,50.77
2023-05-19T04:22:57.460Z,50.60
2023-05-19T04:25:29.097Z,50.83
2023-05-19T04:28:01.227Z,50.43
2023-05-19T04:30:33.647Z,50.67
2023-05-19T04:33:05.922Z,50.53
2023-05-19T04:35:38.198Z,50.88
2023-05-19T04:38:12.169Z,50.87
2023-05-19T04:40:44.452Z,50.59
2023-05-19T04:43:15.912Z,50.56
2023-05-19T04:45:50.244Z,50.66
2023-05-19T04:48:23.213Z,50.45
2023-05-19T04:50:54.625Z,50.45
2023-05-19T04:53:27.120Z,50.14
2023-05-19T04:55:59.236Z,49.82
2023-05-19T04:58:30.542Z,49.69
2023-05-19T05:01:01.724Z,49.48
2023-05-19T05:03:34.654Z,49.31
2023-05-19T05:06:06.658Z,49.15
2023-05-19T05:08:40.260Z,48.96
2023-05-19T05:11:13.241Z,48.68
2023-05-19T05:13:45.630Z,48.81
2023-05-19T05:16:19.028Z,49.10
2023-05-19T05:18:52.275Z,48.87
2023-05-19T05:21:24.641Z,48.80
2023-05-19T05:23:57.013Z,48.91
2023-05-19T05:26:34.371Z,48.93
2023-05-19T05:29:05.445Z,49.05
2023-05-19T05:31:36.993Z,49.00
2023-05-19T05:34:08.994Z,48.96
2023-05-19T05:36:41.845Z,48.99
2023-05-19T05:39:14.066Z,48.99
2023-05-19T05:41:45.591Z,48.90
2023-05-19T05:44:17.109Z,48.90
2023-05-19T05:46:50.467Z,48.97
2023-05-19T05:49:23.103Z,48.82
2023-05-19T05:54:35.352Z,48.90
2023-05-19T05:57:08.238Z,48.76
2023-05-19T05:59:40.980Z,48.57
2023-05-19T06:02:12.626Z,48.56
2023-05-19T06:04:44.189Z,48.32
2023-05-19T06:07:15.670Z,48.47
2023-05-19T06:09:49.336Z,48.47
2023-05-19T06:12:20.681Z,48.53
2023-05-19T06:14:52.244Z,48.65
2023-05-19T06:17:43.932Z,48.64
2023-05-19T06:20:16.415Z,48.80
2023-05-19T06:22:47.696Z,48.91
2023-05-19T06:25:20.619Z,48.86
2023-05-19T06:27:52.540Z,48.78
2023-05-19T06:30:24.528Z,49.04
2023-05-19T06:33:22.384Z,49.30
2023-05-19T06:35:53.926Z,49.36
2023-05-19T06:38:25.642Z,49.59
2023-05-19T06:40:56.815Z,49.86
2023-05-19T06:43:28.804Z,50.07
2023-05-19T06:46:02.066Z,50.35
2023-05-19T06:48:34.745Z,50.17
2023-05-19T06:51:07.741Z,50.34
2023-05-19T06:53:39.154Z,50.25
2023-05-19T06:56:12.506Z,50.34
2023-05-19T06:58:44.329Z,50.45
2023-05-19T07:01:16.091Z,50.53
2023-05-19T07:03:50.931Z,50.59
2023-05-19T07:06:22.864Z,50.67
2023-05-19T07:08:55.916Z,50.85
2023-05-19T07:11:28.609Z,51.00
2023-05-19T07:14:00.565Z,51.26
2023-05-19T07:16:32.544Z,51.51
2023-05-19T07:19:04.384Z,51.66
2023-05-19T07:21:37.110Z,51.86
2023-05-19T07:24:09.341Z,52.24
2023-05-19T07:26:40.646Z,52.36
2023-05-19T07:29:12.800Z,52.63
2023-05-19T07:31:44.071Z,52.93
2023-05-19T07:34:15.435Z,53.04
2023-05-19T07:36:46.459Z,53.09
2023-05-19T07:39:18.470Z,53.31
2023-05-19T07:41:52.877Z,53.34
2023-05-19T07:44:24.056Z,53.46
2023-05-19T07:46:55.612Z,53.47
2023-05-19T07:49:26.967Z,53.62
2023-05-19T07:51:58.467Z,53.78
2023-05-19T07:54:29.494Z,54.02
2023-05-19T07:57:01.275Z,53.95
2023-05-19T07:59:32.631Z,53.88
2023-05-19T08:02:05.308Z,53.96
2023-05-19T08:04:37.111Z,53.92
2023-05-19T08:07:08.658Z,54.20
2023-05-19T08:09:39.591Z,54.18
2023-05-19T08:12:11.321Z,54.20
2023-05-19T08:14:42.303Z,54.45
2023-05-19T08:17:13.201Z,54.37
2023-05-19T08:19:44.790Z,54.87
2023-05-19T08:22:15.974Z,55.14
2023-05-19T08:24:49.605Z,55.37
2023-05-19T08:27:21.383Z,55.40
2023-05-19T08:29:52.739Z,55.51
2023-05-19T08:32:23.903Z,55.63
2023-05-19T08:34:55.932Z,55.48
2023-05-19T08:37:27.237Z,55.45
2023-05-19T08:39:58.620Z,55.38
2023-05-19T08:42:29.776Z,55.73
2023-05-19T08:45:01.392Z,56.03
2023-05-19T08:47:33.452Z,55.97
2023-05-19T08:50:10.093Z,56.33
2023-05-19T08:52:52.508Z,56.15
2023-05-19T08:55:35.083Z,56.28
2023-05-19T08:58:06.759Z,56.26
2023-05-19T09:00:38.265Z,56.28
2023-05-19T09:03:22.785Z,56.43
2023-05-19T09:05:54.932Z,56.55
2023-05-19T09:08:26.860Z,56.35
2023-05-19T09:10:58.614Z,56.32
2023-05-19T09:13:29.923Z,56.32
2023-05-19T09:16:01.047Z,56.22
2023-05-19T09:18:33.277Z,56.39
2023-05-19T09:21:04.781Z,56.39
2023-05-19T09:23:36.317Z,56.45
2023-05-19T09:26:08.413Z,56.76
2023-05-19T09:28:41.686Z,56.72
2023-05-19T09:31:13.229Z,56.65
2023-05-19T09:33:46.308Z,56.71
2023-05-19T09:36:17.791Z,56.70
2023-05-19T09:38:49.418Z,56.76
2023-05-19T09:41:22.223Z,56.94
2023-05-19T09:43:57.146Z,56.86
2023-05-19T09:46:30.309Z,56.76
2023-05-19T09:49:01.645Z,56.81
2023-05-19T09:51:33.208Z,56.94
2023-05-19T09:54:04.576Z,56.93
2023-05-19T09:56:37.023Z,56.95
2023-05-19T09:59:08.256Z,56.99
2023-05-19T10:01:41.420Z,56.96
2023-05-19T10:04:13.743Z,56.82
2023-05-19T10:06:46.446Z,57.02
2023-05-19T10:09:18.219Z,57.11
2023-05-19T10:11:49.386Z,57.14
2023-05-19T10:14:21.478Z,57.14
2023-05-19T10:16:54.170Z,57.30
2023-05-19T10:19:27.727Z,57.20
2023-05-19T10:21:58.912Z,57.11
2023-05-19T10:24:30.484Z,57.16
2023-05-19T10:27:06.505Z,57.20
2023-05-19T10:29:42.450Z,57.27
2023-05-19T10:32:16.902Z,57.22
2023-05-19T10:35:27.142Z,57.40
2023-05-19T10:38:07.496Z,57.40
2023-05-19T10:40:42.543Z,57.40
2023-05-19T10:43:27.506Z,57.16
2023-05-19T10:46:01.187Z,56.98
2023-05-19T10:48:37.405Z,57.06
2023-05-19T10:51:12.349Z,57.01
2023-05-19T10:53:50.615Z,57.13
2023-05-19T10:56:36.300Z,57.06
2023-05-19T10:59:07.793Z,57.22
2023-05-19T11:01:41.758Z,57.25
2023-05-19T11:04:16.065Z,57.34
2023-05-19T11:06:53.756Z,57.19
2023-05-19T11:09:37.801Z,57.26
2023-05-19T11:12:13.052Z,57.45
2023-05-19T11:14:45.978Z,57.26
2023-05-19T11:17:17.912Z,57.09
2023-05-19T11:19:57.465Z,57.13
2023-05-19T11:22:29.357Z,57.10
2023-05-19T11:25:00.837Z,57.03
2023-05-19T11:27:33.099Z,56.96
2023-05-19T11:30:14.624Z,56.99
2023-05-19T11:32:48.999Z,56.92
2023-05-19T11:35:21.583Z,56.83
2023-05-19T11:37:55.287Z,56.76
2023-05-19T11:40:27.808Z,56.77
2023-05-19T11:42:59.244Z,56.77
2023-05-19T11:45:32.683Z,56.77
2023-05-19T11:48:05.527Z,56.82
2023-05-19T11:50:38.460Z,56.79
2023-05-19T11:53:12.678Z,56.95
2023-05-19T11:55:48.767Z,56.96
2023-05-19T11:58:27.383Z,56.79
2023-05-19T12:00:58.665Z,56.99
2023-05-19T12:03:30.011Z,57.01
2023-05-19T12:06:05.857Z,57.06
2023-05-19T12:08:38.669Z,56.92
2023-05-19T12:11:10.168Z,56.87
2023-05-19T12:13:42.007Z,56.73
2023-05-19T12:16:13.397Z,56.93
2023-05-19T12:18:45.348Z,56.94
2023-05-19T12:21:17.578Z,56.85
2023-05-19T12:23:48.635Z,56.85
2023-05-19T12:26:22.424Z,56.95
2023-05-19T12:28:54.401Z,56.83
2023-05-19T12:31:25.663Z,56.69
2023-05-19T12:33:58.860Z,56.41
2023-05-19T12:36:32.346Z,56.35
2023-05-19T12:39:06.334Z,56.21
2023-05-19T12:41:37.721Z,55.92
2023-05-19T12:44:18.386Z,55.96
2023-05-19T12:46:53.145Z,55.89
2023-05-19T12:49:24.786Z,55.61
2023-05-19T12:51:56.431Z,55.63
2023-05-19T12:54:27.906Z,55.53
2023-05-19T12:57:00.632Z,55.72
2023-05-19T12:59:38.887Z,55.69
2023-05-19T13:02:10.905Z,55.46
2023-05-19T13:04:42.535Z,55.47
2023-05-19T13:07:14.293Z,55.30
2023-05-19T13:09:45.818Z,55.23
2023-05-19T13:12:17.330Z,54.95
2023-05-19T13:14:48.516Z,54.88
2023-05-19T13:17:20.736Z,54.88
2023-05-19T13:19:52.751Z,54.77
2023-05-19T13:22:24.225Z,54.78
2023-05-19T13:24:59.081Z,54.70
2023-05-19T13:27:30.567Z,54.64
2023-05-19T13:30:01.957Z,54.73
2023-05-19T13:32:33.286Z,54.72
2023-05-19T13:35:04.884Z,54.68
2023-05-19T13:37:36.509Z,54.82
2023-05-19T13:40:09.620Z,54.87
2023-05-19T13:42:40.625Z,54.62
2023-05-19T13:45:13.584Z,54.80
2023-05-19T13:47:45.091Z,54.62
2023-05-19T13:50:16.421Z,54.37
2023-05-19T13:52:47.691Z,54.29
2023-05-19T13:55:19.277Z,54.09
2023-05-19T13:57:50.929Z,54.00
2023-05-19T14:00:23.128Z,53.75
2023-05-19T14:02:54.458Z,53.46
2023-05-19T14:05:27.752Z,53.06
2023-05-19T14:08:00.595Z,53.08
2023-05-19T14:10:32.068Z,52.84
2023-05-19T14:13:29.918Z,52.50
2023-05-19T14:15:55.683Z,52.55
2023-05-19T14:18:27.183Z,52.64
2023-05-19T14:20:58.288Z,52.55
2023-05-19T14:23:30.455Z,52.56
2023-05-19T14:26:01.478Z,52.35
2023-05-19T14:28:32.596Z,52.26
2023-05-19T14:31:03.955Z,52.25
2023-05-19T14:33:35.695Z,52.30
2023-05-19T14:36:09.161Z,52.11
2023-05-19T14:38:40.423Z,51.94
2023-05-19T14:41:11.614Z,51.63
2023-05-19T14:43:43.259Z,51.38
2023-05-19T14:46:14.169Z,51.05
2023-05-19T14:48:45.409Z,51.07
2023-05-19T14:51:16.775Z,51.22
2023-05-19T14:53:49.055Z,50.90
2023-05-19T14:56:20.653Z,50.29
2023-05-19T14:58:51.814Z,50.46
2023-05-19T15:01:22.747Z,50.22
2023-05-19T15:03:54.075Z,50.22
2023-05-19T15:06:25.456Z,50.41
2023-05-19T15:08:56.891Z,50.15
2023-05-19T15:11:28.469Z,50.01
2023-05-19T15:13:59.695Z,49.97
2023-05-19T15:16:30.914Z,49.83
2023-05-19T15:19:02.248Z,49.99
2023-05-19T15:21:33.706Z,50.09
2023-05-19T15:24:04.947Z,50.07
2023-05-19T15:26:36.047Z,50.02
2023-05-19T15:29:07.555Z,49.96
2023-05-19T15:31:38.729Z,49.86
2023-05-19T15:34:10.041Z,49.63
2023-05-19T15:36:41.325Z,49.77
2023-05-19T15:39:12.553Z,49.53
2023-05-19T15:41:43.757Z,49.70
2023-05-19T15:44:15.078Z,49.57
2023-05-19T15:46:46.198Z,49.46
2023-05-19T15:49:18.148Z,49.52
2023-05-19T15:51:49.670Z,49.51
2023-05-19T15:54:20.715Z,49.57
2023-05-19T15:56:51.735Z,49.50
2023-05-19T15:59:22.855Z,49.19
2023-05-19T16:01:54.031Z,48.94
2023-05-19T16:04:25.206Z,48.73
2023-05-19T16:06:56.248Z,48.70
2023-05-19T16:09:27.373Z,48.63
2023-05-19T16:11:58.389Z,48.39
2023-05-19T16:14:32.117Z,48.39
2023-05-19T16:17:03.354Z,48.17
2023-05-19T16:19:34.533Z,48.05
2023-05-19T16:22:05.648Z,48.22
2023-05-19T16:24:36.725Z,48.52
2023-05-19T16:27:08.489Z,48.81
2023-05-19T16:29:39.448Z,48.89
2023-05-19T16:32:10.764Z,49.12
2023-05-19T16:34:41.938Z,49.26
2023-05-19T16:37:13.601Z,49.50
2023-05-19T16:39:45.078Z,49.44
2023-05-19T16:42:16.415Z,49.53
2023-05-19T16:44:47.362Z,49.68
2023-05-19T16:47:19.187Z,49.65
2023-05-19T16:49:50.195Z,49.65
2023-05-19T16:52:21.443Z,49.49
2023-05-19T16:54:52.852Z,49.59
2023-05-19T16:57:24.367Z,49.61
2023-05-19T16:59:55.910Z,49.44
2023-05-19T17:02:26.830Z,49.51
2023-05-19T17:04:58.180Z,49.51
2023-05-19T17:07:29.953Z,49.53
2023-05-19T17:10:00.961Z,49.49
2023-05-19T17:12:32.552Z,49.47
2023-05-19T17:15:03.984Z,49.50
2023-05-19T17:17:35.376Z,49.73
2023-05-19T17:20:08.001Z,49.81
2023-05-19T17:22:39.268Z,49.76
2023-05-19T17:25:12.363Z,49.71
2023-05-19T17:27:43.898Z,49.84
2023-05-19T17:30:16.621Z,49.90
2023-05-19T17:32:48.149Z,49.83
2023-05-19T17:35:19.784Z,50.23
2023-05-19T17:37:51.160Z,50.26
2023-05-19T17:40:22.516Z,50.41
2023-05-19T17:42:53.966Z,50.54
2023-05-19T17:45:25.379Z,50.38
2023-05-19T17:47:56.672Z,50.35
2023-05-19T17:50:27.832Z,50.41
2023-05-19T17:53:01.737Z,50.67
2023-05-19T17:55:34.364Z,50.55
2023-05-19T17:58:06.993Z,50.63
2023-05-19T18:00:39.391Z,50.81
2023-05-19T18:03:12.179Z,50.79
2023-05-19T18:05:44.850Z,50.82
2023-05-19T18:08:18.115Z,50.92
2023-05-19T18:10:51.708Z,50.82
2023-05-19T18:13:23.768Z,50.65
2023-05-19T18:15:55.095Z,50.65
2023-05-19T18:18:26.496Z,50.52
2023-05-19T18:20:58.191Z,50.78
2023-05-19T18:23:29.413Z,50.98
2023-05-19T18:26:00.553Z,50.92
2023-05-19T18:28:31.809Z,50.72
2023-05-19T18:31:03.801Z,50.98
2023-05-19T18:33:35.596Z,51.02
2023-05-19T18:36:08.328Z,50.93
2023-05-19T18:38:39.410Z,50.88
2023-05-19T18:41:10.873Z,50.91
2023-05-19T18:43:42.323Z,51.44
2023-05-19T18:46:13.736Z,51.77
2023-05-19T18:48:45.149Z,51.54
2023-05-19T18:51:18.658Z,51.42
2023-05-19T18:53:50.905Z,51.32
2023-05-19T18:56:28.689Z,51.33
2023-05-19T18:59:00.015Z,51.31
2023-05-19T19:01:31.462Z,51.63
2023-05-19T19:04:03.441Z,51.50
2023-05-19T19:06:34.671Z,51.46
2023-05-19T19:09:07.022Z,51.21
2023-05-19T19:11:38.409Z,51.14
2023-05-19T19:14:11.854Z,51.22
2023-05-19T19:16:44.784Z,51.15
2023-05-19T19:19:19.553Z,51.07
2023-05-19T19:21:50.792Z,51.01
2023-05-19T19:24:23.887Z,50.86
2023-05-19T19:26:57.771Z,50.94
2023-05-19T19:29:28.622Z,51.14
2023-05-19T19:32:00.749Z,51.23
2023-05-19T19:34:31.959Z,51.26
2023-05-19T19:37:03.489Z,51.44
2023-05-19T19:39:34.779Z,51.50
2023-05-19T19:42:06.883Z,51.40
2023-05-19T19:44:38.070Z,51.71
2023-05-19T19:47:09.255Z,51.90
2023-05-19T19:49:41.461Z,51.80
2023-05-19T19:52:13.530Z,51.84
2023-05-19T19:54:44.833Z,52.12
2023-05-19T19:57:17.772Z,52.36
2023-05-19T19:59:55.143Z,52.39
2023-05-19T20:02:28.945Z,52.29
2023-05-19T20:05:04.769Z,52.42
2023-05-19T20:07:37.382Z,52.70
2023-05-19T20:10:10.235Z,53.05
2023-05-19T20:12:42.064Z,53.03
2023-05-19T20:15:15.397Z,53.28
2023-05-19T20:17:48.341Z,53.14
2023-05-19T20:20:20.034Z,53.26
2023-05-19T20:22:51.095Z,53.19
2023-05-19T20:25:22.967Z,53.05
2023-05-19T20:27:54.450Z,52.85
2023-05-19T20:30:27.843Z,52.92
2023-05-19T20:32:58.893Z,53.13
2023-05-19T20:35:30.675Z,53.29
2023-05-19T20:38:01.816Z,53.11
2023-05-19T20:40:33.199Z,53.22
2023-05-19T20:43:04.746Z,53.35
2023-05-19T20:45:36.391Z,53.38
2023-05-19T20:48:09.192Z,53.59
2023-05-19T20:50:40.650Z,53.26
2023-05-19T20:53:11.705Z,53.18
2023-05-19T20:55:44.903Z,52.97
2023-05-19T20:58:16.616Z,52.88
2023-05-19T21:00:48.867Z,52.93
2023-05-19T21:03:21.487Z,52.80
2023-05-19T21:05:53.794Z,52.65
2023-05-19T21:08:25.620Z,52.58
2023-05-19T21:10:56.603Z,52.56
2023-05-19T21:13:27.801Z,52.77
2023-05-19T21:16:00.327Z,52.51
2023-05-19T21:18:31.343Z,52.48
2023-05-19T21:21:05.892Z,52.41
2023-05-19T21:23:37.156Z,52.27
2023-05-19T21:26:08.425Z,52.32
2023-05-19T21:28:39.509Z,52.30
2023-05-19T21:31:10.383Z,52.01
2023-05-19T21:33:41.272Z,52.15
2023-05-19T21:36:12.672Z,51.71
2023-05-19T21:38:43.672Z,51.58
2023-05-19T21:41:15.028Z,51.53
2023-05-19T21:43:47.216Z,51.60
2023-05-19T21:46:18.378Z,51.75
2023-05-19T21:48:49.617Z,51.63
2023-05-19T21:51:21.088Z,51.54
2023-05-19T21:53:52.448Z,51.43
2023-05-19T21:56:23.985Z,51.19
2023-05-19T21:58:55.020Z,51.38
2023-05-19T22:01:26.635Z,51.24
2023-05-19T22:03:58.062Z,51.33
2023-05-19T22:06:29.777Z,51.26
2023-05-19T22:09:02.663Z,51.27
2023-05-19T22:11:34.321Z,51.79
2023-05-19T22:14:05.661Z,51.79
2023-05-19T22:16:37.188Z,51.66
2023-05-19T22:19:08.421Z,51.40
2023-05-19T22:21:39.923Z,51.72
2023-05-19T22:24:11.366Z,51.66
2023-05-19T22:26:43.396Z,51.56
2023-05-19T22:29:16.599Z,51.62
2023-05-19T22:31:47.840Z,51.51
2023-05-19T22:34:19.681Z,51.64
2023-05-19T22:36:51.381Z,51.82
2023-05-19T22:39:22.733Z,51.78
2023-05-19T22:41:54.030Z,51.80
2023-05-19T22:44:25.268Z,51.65
2023-05-19T22:46:56.557Z,51.66
2023-05-19T22:49:29.980Z,51.70
2023-05-19T22:52:01.013Z,51.68
2023-05-19T22:54:31.951Z,51.73
2023-05-19T22:57:03.515Z,51.80
2023-05-19T22:59:35.562Z,52.01
2023-05-19T23:02:07.520Z,52.10
2023-05-19T23:04:39.169Z,51.97
2023-05-19T23:07:10.794Z,51.70
2023-05-19T23:09:42.049Z,51.76
2023-05-19T23:12:13.568Z,51.65
2023-05-19T23:14:45.166Z,51.81
2023-05-19T23:17:16.313Z,51.83
2023-05-19T23:19:47.594Z,52.66
2023-05-19T23:22:18.960Z,52.47
2023-05-19T23:24:50.561Z,52.10
2023-05-19T23:27:22.054Z,51.77
2023-05-19T23:29:54.264Z,51.53
2023-05-19T23:32:25.649Z,51.48
2023-05-19T23:34:57.474Z,51.83
2023-05-19T23:37:28.740Z,51.76
2023-05-19T23:40:00.500Z,51.66
2023-05-19T23:42:32.055Z,51.64
2023-05-19T23:45:03.616Z,52.17
2023-05-19T23:47:34.968Z,51.81
2023-05-19T23:50:06.571Z,52.00
2023-05-19T23:52:37.689Z,51.83
2023-05-19T23:55:12.822Z,51.45
2023-05-19T23:57:44.704Z,51.36
